createdAt,value
2018-05-10T00:01:25.674Z,12.77
2018-05-10T00:03:53.251Z,12.60
2018-05-10T00:06:20.858Z,13.10
2018-05-10T00:08:48.453Z,11.67
2018-05-10T00:11:16.872Z,12.30
2018-05-10T00:13:44.496Z,11.43
2018-05-10T00:16:13.654Z,11.85
2018-05-10T00:18:41.259Z,12.18
2018-05-10T00:21:08.857Z,12.07
2018-05-10T00:23:37.579Z,13.05
2018-05-10T00:26:06.057Z,13.13
2018-05-10T00:28:33.640Z,13.07
2018-05-10T00:31:01.251Z,12.17
2018-05-10T00:33:28.850Z,12.80
2018-05-10T00:35:56.467Z,11.70
2018-05-10T00:38:24.857Z,13.13
2018-05-10T00:40:52.480Z,11.12
2018-05-10T00:43:20.215Z,12.65
2018-05-10T00:45:48.136Z,12.23
2018-05-10T00:48:15.845Z,12.75
2018-05-10T00:50:43.486Z,13.43
2018-05-10T00:53:11.081Z,12.40
2018-05-10T00:55:38.661Z,14.23
2018-05-10T00:58:06.253Z,12.57
2018-05-10T01:00:33.825Z,12.88
2018-05-10T01:03:01.422Z,13.10
2018-05-10T01:05:29.767Z,15.50
2018-05-10T01:07:57.409Z,12.85
2018-05-10T01:10:25.072Z,12.45
2018-05-10T01:12:52.816Z,11.85
2018-05-10T01:15:20.912Z,13.32
2018-05-10T01:17:49.170Z,11.88
2018-05-10T01:20:17.066Z,12.70
2018-05-10T01:22:44.762Z,13.20
2018-05-10T01:25:12.416Z,12.80
2018-05-10T01:27:39.986Z,14.98
2018-05-10T01:30:07.588Z,13.18
2018-05-10T01:32:35.922Z,12.80
2018-05-10T01:35:15.482Z,13.52
2018-05-10T01:37:43.179Z,13.10
2018-05-10T01:40:10.775Z,12.77
2018-05-10T01:42:40.175Z,12.30
2018-05-10T01:45:07.770Z,12.65
2018-05-10T01:47:36.191Z,12.88
2018-05-10T01:50:03.783Z,12.15
2018-05-10T01:52:31.366Z,12.82
2018-05-10T01:54:58.963Z,12.30
2018-05-10T01:57:27.360Z,12.48
2018-05-10T01:59:55.102Z,12.40
2018-05-10T02:02:22.742Z,12.70
2018-05-10T02:04:50.583Z,13.50
2018-05-10T02:07:19.098Z,12.07
2018-05-10T02:09:46.878Z,12.00
2018-05-10T02:12:14.566Z,12.70
2018-05-10T02:14:42.209Z,12.20
2018-05-10T02:17:09.757Z,11.70
2018-05-10T02:19:37.326Z,12.88
2018-05-10T02:22:04.957Z,12.88
2018-05-10T02:24:32.522Z,13.27
2018-05-10T02:27:00.142Z,12.18
2018-05-10T02:29:27.746Z,12.73
2018-05-10T02:31:56.208Z,10.93
2018-05-10T02:34:23.870Z,12.95
2018-05-10T02:36:51.550Z,12.65
2018-05-10T02:39:19.613Z,12.23
2018-05-10T02:41:47.397Z,12.13
2018-05-10T02:44:15.022Z,12.10
2018-05-10T02:46:43.376Z,12.75
2018-05-10T02:49:10.966Z,12.05
2018-05-10T02:51:38.543Z,11.50
2018-05-10T02:54:06.135Z,11.55
2018-05-10T02:56:34.471Z,12.60
2018-05-10T02:59:02.072Z,13.10
2018-05-10T03:01:29.647Z,12.25
2018-05-10T03:03:57.276Z,11.40
2018-05-10T03:06:24.930Z,11.25
2018-05-10T03:08:52.588Z,13.75
2018-05-10T03:11:21.059Z,12.98
2018-05-10T03:13:49.097Z,11.73
2018-05-10T03:16:16.986Z,12.13
2018-05-10T03:18:44.646Z,12.63
2018-05-10T03:21:12.249Z,13.07
2018-05-10T03:23:39.821Z,13.20
2018-05-10T03:26:07.414Z,14.43
2018-05-10T03:28:34.990Z,13.23
2018-05-10T03:31:02.583Z,13.10
2018-05-10T03:33:30.934Z,12.05
2018-05-10T03:35:59.285Z,13.75
2018-05-10T03:38:26.895Z,12.63
2018-05-10T03:40:54.548Z,12.35
2018-05-10T03:43:22.170Z,12.13
2018-05-10T03:48:24.242Z,13.23
2018-05-10T03:50:51.920Z,11.98
2018-05-10T03:53:19.573Z,14.77
2018-05-10T03:55:47.223Z,16.37
2018-05-10T03:58:14.831Z,17.20
2018-05-10T04:00:42.451Z,18.10
2018-05-10T04:06:22.629Z,14.80
2018-05-10T04:09:02.126Z,14.15
2018-05-10T04:11:30.482Z,13.45
2018-05-10T04:13:58.176Z,14.05
2018-05-10T04:16:25.805Z,14.10
2018-05-10T04:18:53.480Z,14.68
2018-05-10T04:21:21.917Z,14.32
2018-05-10T04:23:50.344Z,14.43
2018-05-10T04:26:18.157Z,13.80
2018-05-10T04:28:45.770Z,13.55
2018-05-10T04:31:13.365Z,13.32
2018-05-10T04:33:40.964Z,14.20
2018-05-10T04:36:08.533Z,14.75
2018-05-10T04:38:36.118Z,13.90
2018-05-10T04:41:04.461Z,14.48
2018-05-10T04:43:32.822Z,13.60
2018-05-10T04:46:00.398Z,14.60
2018-05-10T04:48:28.087Z,17.17
2018-05-10T04:50:55.756Z,13.88
2018-05-10T04:53:24.299Z,14.10
2018-05-10T04:55:52.031Z,14.33
2018-05-10T04:58:21.019Z,13.67
2018-05-10T05:00:50.547Z,14.53
2018-05-10T05:03:19.594Z,17.90
2018-05-10T05:05:48.202Z,16.60
2018-05-10T05:08:15.889Z,17.73
2018-05-10T05:10:43.661Z,14.80
2018-05-10T05:13:11.826Z,15.70
2018-05-10T05:15:39.442Z,15.17
2018-05-10T05:18:07.009Z,13.30
2018-05-10T05:20:34.597Z,17.47
2018-05-10T05:23:02.437Z,14.60
2018-05-10T05:25:30.036Z,14.13
2018-05-10T05:27:58.013Z,15.10
2018-05-10T05:30:25.962Z,17.30
2018-05-10T05:32:55.269Z,18.30
2018-05-10T05:35:23.031Z,15.33
2018-05-10T05:37:51.369Z,15.03
2018-05-10T05:40:18.955Z,14.37
2018-05-10T05:42:46.585Z,13.10
2018-05-10T05:45:14.170Z,14.30
2018-05-10T05:47:41.744Z,13.57
2018-05-10T05:50:09.554Z,13.53
2018-05-10T05:52:37.555Z,13.00
2018-05-10T05:55:05.357Z,13.50
2018-05-10T05:57:33.935Z,13.53
2018-05-10T06:00:02.273Z,11.23
2018-05-10T06:02:31.179Z,13.40
2018-05-10T06:04:59.004Z,13.13
2018-05-10T06:07:26.667Z,13.50
2018-05-10T06:09:54.345Z,14.30
2018-05-10T06:12:23.178Z,13.03
2018-05-10T06:14:51.920Z,12.30
2018-05-10T06:17:19.909Z,13.13
2018-05-10T06:19:47.979Z,11.87
2018-05-10T06:22:15.573Z,11.07
2018-05-10T06:24:43.151Z,11.90
2018-05-10T06:27:10.742Z,10.80
2018-05-10T06:29:39.078Z,12.50
2018-05-10T06:32:06.836Z,12.63
2018-05-10T06:34:34.446Z,12.17
2018-05-10T06:37:02.082Z,12.97
2018-05-10T06:39:30.143Z,10.57
2018-05-10T06:41:57.928Z,13.83
2018-05-10T06:44:28.217Z,10.73
2018-05-10T06:46:56.279Z,12.87
2018-05-10T06:49:24.318Z,12.07
2018-05-10T06:51:52.850Z,13.33
2018-05-10T06:54:20.717Z,11.80
2018-05-10T06:56:48.381Z,14.93
2018-05-10T06:59:16.015Z,11.27
2018-05-10T07:01:43.760Z,11.93
2018-05-10T07:04:11.541Z,11.43
2018-05-10T07:06:39.222Z,12.10
2018-05-10T07:09:07.124Z,10.73
2018-05-10T07:11:35.646Z,11.77
2018-05-10T07:14:04.057Z,10.07
2018-05-10T07:16:32.157Z,12.27
2018-05-10T07:18:59.718Z,10.60
2018-05-10T07:21:30.121Z,11.03
2018-05-10T07:23:58.830Z,11.23
2018-05-10T07:26:26.481Z,12.13
2018-05-10T07:28:54.050Z,11.60
2018-05-10T07:31:21.650Z,10.67
2018-05-10T07:33:50.026Z,11.33
2018-05-10T07:36:18.046Z,11.70
2018-05-10T07:38:45.712Z,12.30
2018-05-10T07:41:13.381Z,12.00
2018-05-10T07:43:42.381Z,9.50
2018-05-10T07:46:10.135Z,11.60
2018-05-10T07:48:37.854Z,10.17
2018-05-10T07:51:06.115Z,9.70
2018-05-10T07:53:34.624Z,10.57
2018-05-10T07:56:02.663Z,10.40
2018-05-10T07:58:30.255Z,11.00
2018-05-10T08:00:57.842Z,11.43
2018-05-10T08:03:25.406Z,10.70
2018-05-10T08:05:52.965Z,9.43
2018-05-10T08:08:20.574Z,9.50
2018-05-10T08:10:49.022Z,8.73
2018-05-10T08:13:16.727Z,9.20
2018-05-10T08:15:45.190Z,8.43
2018-05-10T08:18:12.880Z,9.03
2018-05-10T08:20:41.611Z,9.43
2018-05-10T08:23:09.536Z,9.17
2018-05-10T08:25:37.563Z,9.07
2018-05-10T08:28:05.208Z,9.87
2018-05-10T08:30:32.785Z,9.37
2018-05-10T08:33:00.357Z,8.17
2018-05-10T08:35:27.921Z,9.00
2018-05-10T08:37:55.517Z,7.57
2018-05-10T08:40:23.077Z,7.83
2018-05-10T08:42:50.647Z,8.60
2018-05-10T08:45:18.271Z,8.63
2018-05-10T08:47:45.889Z,8.40
2018-05-10T08:50:15.521Z,8.07
2018-05-10T08:52:43.171Z,7.67
2018-05-10T08:55:11.321Z,7.73
2018-05-10T08:57:39.118Z,7.50
2018-05-10T09:00:07.650Z,7.30
2018-05-10T09:02:35.292Z,8.30
2018-05-10T09:05:03.006Z,7.47
2018-05-10T09:07:30.598Z,7.57
2018-05-10T09:09:58.949Z,6.90
2018-05-10T09:12:26.519Z,8.20
2018-05-10T09:14:54.105Z,7.20
2018-05-10T09:17:21.674Z,7.47
2018-05-10T09:19:49.294Z,6.80
2018-05-10T09:22:17.872Z,7.17
2018-05-10T09:24:45.603Z,8.63
2018-05-10T09:27:13.256Z,7.77
2018-05-10T09:29:41.598Z,8.07
2018-05-10T09:32:09.581Z,7.77
2018-05-10T09:34:37.717Z,8.73
2018-05-10T09:37:10.070Z,7.27
2018-05-10T09:39:37.916Z,8.30
2018-05-10T09:42:05.523Z,8.67
2018-05-10T09:44:33.166Z,8.00
2018-05-10T09:47:00.753Z,7.40
2018-05-10T09:49:28.322Z,7.70
2018-05-10T09:51:55.897Z,7.30
2018-05-10T09:54:23.458Z,6.90
2018-05-10T09:56:51.038Z,7.67
2018-05-10T09:59:18.599Z,8.10
2018-05-10T10:01:46.262Z,7.70
2018-05-10T10:04:13.967Z,7.23
2018-05-10T10:06:42.416Z,7.83
2018-05-10T10:09:10.236Z,7.80
2018-05-10T10:11:38.900Z,8.87
2018-05-10T10:14:07.678Z,7.53
2018-05-10T10:16:36.454Z,8.03
2018-05-10T10:19:04.098Z,8.03
2018-05-10T10:21:31.667Z,8.10
2018-05-10T10:23:59.251Z,6.90
2018-05-10T10:26:26.813Z,6.90
2018-05-10T10:28:54.400Z,6.77
2018-05-10T10:31:21.956Z,7.57
2018-05-10T10:33:49.542Z,6.70
2018-05-10T10:36:17.150Z,6.70
2018-05-10T10:38:44.786Z,7.03
2018-05-10T10:41:13.190Z,7.27
2018-05-10T10:43:41.299Z,6.47
2018-05-10T10:46:09.302Z,6.73
2018-05-10T10:48:37.049Z,7.07
2018-05-10T10:51:04.654Z,6.27
2018-05-10T10:53:32.218Z,5.93
2018-05-10T10:55:59.803Z,6.53
2018-05-10T10:58:27.364Z,5.73
2018-05-10T11:00:54.949Z,6.30
2018-05-10T11:03:22.607Z,6.87
2018-05-10T11:05:50.186Z,6.00
2018-05-10T11:08:17.778Z,6.13
2018-05-10T11:10:48.614Z,5.47
2018-05-10T11:13:16.226Z,5.93
2018-05-10T11:15:43.850Z,6.67
2018-05-10T11:18:11.569Z,6.00
2018-05-10T11:20:40.571Z,6.17
2018-05-10T11:23:08.583Z,5.90
2018-05-10T11:25:37.222Z,5.37
2018-05-10T11:28:04.793Z,5.33
2018-05-10T11:30:32.373Z,5.93
2018-05-10T11:33:00.026Z,6.63
2018-05-10T11:35:27.554Z,5.67
2018-05-10T11:37:55.109Z,6.00
2018-05-10T11:40:22.707Z,4.87
2018-05-10T11:42:50.268Z,6.10
2018-05-10T11:45:18.665Z,5.27
2018-05-10T11:47:47.101Z,4.70
2018-05-10T11:50:14.798Z,5.83
2018-05-10T11:52:42.572Z,5.80
2018-05-10T11:55:10.431Z,6.00
2018-05-10T11:57:38.306Z,5.90
2018-05-10T12:00:06.506Z,5.13
2018-05-10T12:02:34.157Z,6.13
2018-05-10T12:05:02.466Z,5.07
2018-05-10T12:07:30.060Z,5.80
2018-05-10T12:09:57.623Z,5.60
2018-05-10T12:12:25.202Z,6.20
2018-05-10T12:14:52.766Z,5.90
2018-05-10T12:17:20.350Z,5.30
2018-05-10T12:19:47.945Z,4.73
2018-05-10T12:22:15.615Z,5.47
2018-05-10T12:24:43.994Z,5.50
2018-05-10T12:27:12.704Z,5.00
2018-05-10T12:29:41.236Z,4.90
2018-05-10T12:32:09.101Z,5.57
2018-05-10T12:34:39.542Z,5.90
2018-05-10T12:37:07.475Z,5.00
2018-05-10T12:39:35.077Z,5.27
2018-05-10T12:42:02.638Z,5.50
2018-05-10T12:44:30.227Z,5.53
2018-05-10T12:46:57.789Z,6.03
2018-05-10T12:49:25.369Z,5.70
2018-05-10T12:51:52.926Z,4.77
2018-05-10T12:54:20.506Z,5.40
2018-05-10T12:56:48.110Z,5.70
2018-05-10T12:59:16.597Z,5.13
2018-05-10T13:01:44.343Z,5.10
2018-05-10T13:04:11.989Z,5.40
2018-05-10T13:06:39.944Z,5.13
2018-05-10T13:09:07.821Z,5.53
2018-05-10T13:11:35.453Z,5.00
2018-05-10T13:14:03.122Z,4.77
2018-05-10T13:16:30.673Z,5.33
2018-05-10T13:18:58.258Z,5.90
2018-05-10T13:21:25.827Z,5.30
2018-05-10T13:23:53.412Z,4.87
2018-05-10T13:26:21.001Z,4.63
2018-05-10T13:28:48.603Z,5.50
2018-05-10T13:31:16.248Z,5.27
2018-05-10T13:33:44.628Z,5.90
2018-05-10T13:36:12.290Z,5.60
2018-05-10T13:38:40.549Z,6.50
2018-05-10T13:41:08.441Z,5.60
2018-05-10T13:43:36.289Z,5.70
2018-05-10T13:46:04.128Z,5.03
2018-05-10T13:48:32.260Z,6.10
2018-05-10T13:50:59.853Z,6.27
2018-05-10T13:53:27.412Z,6.00
2018-05-10T13:55:54.986Z,5.80
2018-05-10T13:58:22.546Z,5.60
2018-05-10T14:00:50.133Z,5.77
2018-05-10T14:03:17.737Z,6.77
2018-05-10T14:05:45.416Z,6.10
2018-05-10T14:08:13.376Z,5.50
2018-05-10T14:10:41.449Z,5.77
2018-05-10T14:13:09.442Z,4.23
2018-05-10T14:15:37.220Z,5.00
2018-05-10T14:18:04.806Z,5.10
2018-05-10T14:20:32.362Z,5.60
2018-05-10T14:22:59.950Z,4.80
2018-05-10T14:25:28.318Z,5.70
2018-05-10T14:27:55.890Z,5.43
2018-05-10T14:30:23.612Z,5.80
2018-05-10T14:32:51.220Z,5.30
2018-05-10T14:35:19.562Z,6.17
2018-05-10T14:37:47.208Z,6.20
2018-05-10T14:40:14.869Z,7.47
2018-05-10T14:42:42.542Z,6.00
2018-05-10T14:45:10.137Z,7.30
2018-05-10T14:47:37.814Z,6.20
2018-05-10T14:50:06.044Z,6.50
2018-05-10T14:52:34.394Z,6.43
2018-05-10T14:55:02.273Z,5.97
2018-05-10T14:57:30.698Z,6.80
2018-05-10T14:59:58.287Z,7.33
2018-05-10T15:02:26.614Z,5.87
2018-05-10T15:04:54.204Z,6.40
2018-05-10T15:07:21.861Z,6.50
2018-05-10T15:09:49.545Z,5.80
2018-05-10T15:12:17.146Z,5.30
2018-05-10T15:14:45.638Z,5.60
2018-05-10T15:17:14.104Z,5.60
2018-05-10T15:19:42.251Z,6.00
2018-05-10T15:22:10.400Z,6.10
2018-05-10T15:24:38.100Z,6.23
2018-05-10T15:27:05.756Z,4.93
2018-05-10T15:29:33.326Z,4.20
2018-05-10T15:32:01.862Z,4.63
2018-05-10T15:34:30.189Z,4.40
2018-05-10T15:36:57.770Z,4.50
2018-05-10T15:39:25.335Z,4.77
2018-05-10T15:41:52.915Z,4.23
2018-05-10T15:44:20.482Z,5.00
2018-05-10T15:46:48.129Z,4.57
2018-05-10T15:49:15.729Z,4.50
2018-05-10T15:51:43.445Z,4.60
2018-05-10T15:54:12.039Z,5.40
2018-05-10T15:56:39.652Z,5.17
2018-05-10T15:59:07.568Z,5.17
2018-05-10T16:01:35.263Z,4.80
2018-05-10T16:04:02.909Z,4.40
2018-05-10T16:06:30.470Z,4.93
2018-05-10T16:08:58.045Z,5.63
2018-05-10T16:11:25.602Z,4.73
2018-05-10T16:13:53.204Z,5.37
2018-05-10T16:16:20.774Z,5.63
2018-05-10T16:18:48.451Z,5.50
2018-05-10T16:21:16.020Z,5.13
2018-05-10T16:23:44.913Z,5.37
2018-05-10T16:26:13.382Z,6.20
2018-05-10T16:28:41.207Z,5.50
2018-05-10T16:31:08.964Z,5.70
2018-05-10T16:33:37.517Z,6.10
2018-05-10T16:36:05.162Z,5.73
2018-05-10T16:38:32.746Z,5.47
2018-05-10T16:41:00.310Z,5.83
2018-05-10T16:43:27.898Z,4.83
2018-05-10T16:45:56.241Z,4.20
2018-05-10T16:48:26.562Z,3.23
2018-05-10T16:50:54.129Z,2.90
2018-05-10T16:53:21.770Z,3.10
2018-05-10T16:55:49.318Z,3.23
2018-05-10T16:58:16.940Z,2.70
2018-05-10T17:00:44.593Z,3.17
2018-05-10T17:03:13.125Z,3.00
2018-05-10T17:05:41.145Z,3.30
2018-05-10T17:08:10.198Z,3.00
2018-05-10T17:10:38.539Z,2.27
2018-05-10T17:13:07.418Z,2.53
2018-05-10T17:15:35.141Z,2.60
2018-05-10T17:18:03.326Z,3.10
2018-05-10T17:20:30.893Z,2.80
2018-05-10T17:22:58.454Z,3.10
2018-05-10T17:25:26.033Z,2.70
2018-05-10T17:27:53.590Z,3.30
2018-05-10T17:30:21.170Z,3.33
2018-05-10T17:32:48.789Z,3.03
2018-05-10T17:35:16.466Z,3.23
2018-05-10T17:37:44.166Z,3.37
2018-05-10T17:40:12.022Z,3.00
2018-05-10T17:42:40.248Z,3.67
2018-05-10T17:45:09.491Z,3.10
2018-05-10T17:47:37.343Z,3.97
2018-05-10T17:50:05.751Z,3.20
2018-05-10T17:52:34.349Z,3.43
2018-05-10T17:55:01.958Z,3.93
2018-05-10T17:57:29.535Z,3.67
2018-05-10T17:59:57.121Z,3.90
2018-05-10T18:02:24.687Z,3.83
2018-05-10T18:04:52.511Z,3.90
2018-05-10T18:07:20.954Z,4.80
2018-05-10T18:09:48.799Z,4.27
2018-05-10T18:12:17.165Z,4.30
2018-05-10T18:14:44.812Z,4.83
2018-05-10T18:17:13.138Z,4.00
2018-05-10T18:19:41.649Z,4.90
2018-05-10T18:22:10.256Z,4.50
2018-05-10T18:24:38.131Z,4.80
2018-05-10T18:27:05.817Z,5.33
2018-05-10T18:29:34.243Z,5.50
2018-05-10T18:32:01.829Z,6.20
2018-05-10T18:34:29.390Z,5.83
2018-05-10T18:36:56.974Z,5.40
2018-05-10T18:39:24.556Z,5.60
2018-05-10T18:41:52.149Z,6.40
2018-05-10T18:44:19.769Z,6.77
2018-05-10T18:46:47.387Z,8.37
2018-05-10T18:49:16.451Z,9.23
2018-05-10T18:51:44.098Z,7.90
2018-05-10T18:54:11.828Z,6.77
2018-05-10T18:56:39.970Z,7.17
2018-05-10T18:59:07.848Z,8.80
2018-05-10T19:01:35.567Z,8.70
2018-05-10T19:04:03.942Z,7.90
2018-05-10T19:06:31.522Z,7.00
2018-05-10T19:08:59.130Z,7.43
2018-05-10T19:11:26.713Z,7.83
2018-05-10T19:13:55.042Z,9.60
2018-05-10T19:16:22.621Z,6.83
2018-05-10T19:18:50.184Z,6.23
2018-05-10T19:21:17.799Z,6.03
2018-05-10T19:23:46.358Z,7.43
2018-05-10T19:26:14.354Z,6.63
2018-05-10T19:28:42.047Z,6.63
2018-05-10T19:31:10.031Z,6.13
2018-05-10T19:33:37.861Z,6.90
2018-05-10T19:36:05.526Z,6.57
2018-05-10T19:38:34.039Z,7.30
2018-05-10T19:41:01.602Z,7.93
2018-05-10T19:43:29.194Z,7.90
2018-05-10T19:45:56.758Z,8.27
2018-05-10T19:48:24.343Z,9.07
2018-05-10T19:50:51.901Z,8.10
2018-05-10T19:53:19.484Z,11.87
2018-05-10T19:55:47.128Z,14.00
2018-05-10T19:58:14.809Z,13.53
2018-05-10T20:00:42.534Z,15.23
2018-05-10T20:03:11.539Z,18.77
2018-05-10T20:05:39.377Z,22.70
2018-05-10T20:08:07.382Z,22.70
2018-05-10T20:10:35.974Z,24.10
2018-05-10T20:13:03.906Z,26.77
2018-05-10T20:15:32.256Z,27.57
2018-05-10T20:18:00.397Z,29.07
2018-05-10T20:20:28.850Z,29.33
2018-05-10T20:22:57.874Z,28.10
2018-05-10T20:25:25.529Z,29.77
2018-05-10T20:27:53.059Z,28.50
2018-05-10T20:30:20.647Z,28.00
2018-05-10T20:32:48.250Z,26.60
2018-05-10T20:35:16.786Z,26.70
2018-05-10T20:37:44.418Z,26.17
2018-05-10T20:40:12.921Z,27.17
2018-05-10T20:42:41.602Z,25.67
2018-05-10T20:45:10.003Z,25.33
2018-05-10T20:47:37.566Z,25.27
2018-05-10T20:50:07.595Z,25.07
2018-05-10T20:52:35.161Z,24.13
2018-05-10T20:55:02.825Z,21.03
2018-05-10T20:57:30.405Z,23.73
2018-05-10T20:59:58.122Z,21.00
2018-05-10T21:02:26.490Z,18.10
2018-05-10T21:04:54.113Z,17.70
2018-05-10T21:07:21.808Z,17.63
2018-05-10T21:09:49.476Z,18.20
2018-05-10T21:12:28.845Z,20.23
2018-05-10T21:14:56.418Z,18.97
2018-05-10T21:17:24.046Z,18.17
2018-05-10T21:19:52.390Z,18.20
2018-05-10T21:22:19.996Z,17.37
2018-05-10T21:24:48.394Z,17.70
2018-05-10T21:27:16.058Z,16.87
2018-05-10T21:29:45.852Z,15.50
2018-05-10T21:32:14.232Z,16.07
2018-05-10T21:34:41.814Z,15.80
2018-05-10T21:37:09.485Z,16.87
2018-05-10T21:39:37.058Z,15.03
2018-05-10T21:42:04.658Z,15.93
2018-05-10T21:44:32.229Z,15.20
2018-05-10T21:46:59.794Z,14.87
2018-05-10T21:49:39.359Z,15.27
2018-05-10T21:52:06.926Z,14.23
2018-05-10T21:54:35.303Z,15.50
2018-05-10T21:57:03.634Z,15.40
2018-05-10T21:59:31.986Z,13.90
2018-05-10T22:01:59.554Z,16.80
2018-05-10T22:04:27.163Z,18.07
2018-05-10T22:06:54.778Z,18.00
2018-05-10T22:09:22.413Z,20.40
2018-05-10T22:11:50.087Z,23.47
2018-05-10T22:14:17.758Z,22.08
2018-05-10T22:16:45.669Z,25.40
2018-05-10T22:19:13.317Z,26.87
2018-05-10T22:21:40.886Z,26.43
2018-05-10T22:24:09.226Z,29.90
2018-05-10T22:26:36.889Z,27.70
2018-05-10T22:29:04.508Z,29.65
2018-05-10T22:31:32.934Z,30.12
2018-05-10T22:34:00.594Z,34.55
2018-05-10T22:36:28.414Z,29.55
2018-05-10T22:38:58.220Z,32.65
2018-05-10T22:41:25.857Z,29.52
2018-05-10T22:43:54.553Z,26.85
2018-05-10T22:46:22.200Z,27.55
2018-05-10T22:48:49.774Z,27.58
2018-05-10T22:51:17.366Z,27.40
2018-05-10T22:53:44.975Z,29.05
2018-05-10T22:56:12.561Z,23.83
2018-05-10T22:58:40.132Z,34.05
2018-05-10T23:01:07.738Z,31.30
2018-05-10T23:03:35.348Z,31.58
2018-05-10T23:06:03.751Z,22.30
2018-05-10T23:08:31.830Z,28.67
2018-05-10T23:10:59.508Z,29.50
2018-05-10T23:13:27.184Z,27.73
2018-05-10T23:15:54.831Z,30.93
2018-05-10T23:18:23.199Z,29.80
2018-05-10T23:20:50.770Z,31.87
2018-05-10T23:23:18.345Z,27.37
2018-05-10T23:25:45.913Z,26.10
2018-05-10T23:28:13.506Z,28.50
2018-05-10T23:30:41.162Z,30.17
2018-05-10T23:33:09.459Z,33.07
2018-05-10T23:35:37.124Z,34.95
2018-05-10T23:38:04.742Z,33.60
2018-05-10T23:40:33.160Z,36.17
2018-05-10T23:43:00.806Z,34.00
2018-05-10T23:45:29.147Z,35.17
2018-05-10T23:47:56.713Z,33.90
2018-05-10T23:50:24.302Z,37.20
2018-05-10T23:52:51.875Z,34.85
2018-05-10T23:55:19.474Z,33.70
2018-05-10T23:57:47.813Z,34.55
